WetterOnline ( https://www.wetteronline.de )

Wetter aktuell Imbergkamm

Aktuelles Wetter: Oberstdorf (812m)

6-stündlich | Neueste Meldungen
Ortszeit Temperatur Wetter
Mo, 16.05. 14:00 21.4° C bedeckt
Mo, 16.05. 8:00 13.8° C bewölkt
Mo, 16.05. 2:00 14.5° C bewölkt
So, 15.05. 20:00 21.2° C leicht bewölkt
So, 15.05. 14:00 24.1° C wolkenlos
So, 15.05. 8:00 11.3° C wolkenlos
So, 15.05. 2:00 8.2° C wolkig
Sa, 14.05. 20:00 18.8° C wolkenlos
Ortszeit Temperatur Wetter
Mo, 16.05. 17:40 15.1° C Regen
Mo, 16.05. 17:30 16.6° C leichter Regen
Mo, 16.05. 17:20 16.6° C leichter Regen
Mo, 16.05. 17:10 16.6° C bedeckt
Mo, 16.05. 17:00 17.8° C bewölkt
Mo, 16.05. 16:50 17.8° C bewölkt
Mo, 16.05. 16:30 18.2° C leichter Regen
Mo, 16.05. 16:00 18.7° C leichter Regen
Mo, 16.05. 15:30 21.4° C bewölkt
Mo, 16.05. 15:00 21.9° C wolkig
Ortszeit Relative Feuchte Sichtweite
Mo, 16.05. 14:00 58% 45 km
Mo, 16.05. 8:00 86% 29 km
Mo, 16.05. 2:00 83% 50 km
So, 15.05. 20:00 57% 55 km
So, 15.05. 14:00 46% 35 km
So, 15.05. 8:00 85% 30 km
So, 15.05. 2:00 94% 30 km
Sa, 14.05. 20:00 63% 45 km
Ortszeit Relative Feuchte Sichtweite
Mo, 16.05. 17:40 84% -
Mo, 16.05. 17:30 70% 35 km
Mo, 16.05. 17:20 70% -
Mo, 16.05. 17:10 72% -
Mo, 16.05. 17:00 68% 50 km
Mo, 16.05. 16:50 68% -
Mo, 16.05. 16:30 68% 55 km
Mo, 16.05. 16:00 68% 28 km
Mo, 16.05. 15:30 52% 65 km
Mo, 16.05. 15:00 48% 40 km
Ortszeit Niederschlagsmenge Niederschlagsart
Mo, 16.05. 14:00 1 l/m2 in 6 Std. Regen
Mo, 16.05. 8:00 0.2 l/m2 in 12 Std. Regen
Mo, 16.05. 2:00 0.0 l/m2 in 6 Std. -
So, 15.05. 20:00 0.0 l/m2 in 12 Std. -
So, 15.05. 14:00 0.0 l/m2 in 6 Std. -
So, 15.05. 8:00 0.0 l/m2 in 12 Std. -
So, 15.05. 2:00 0.0 l/m2 in 6 Std. -
Sa, 14.05. 20:00 0.0 l/m2 in 12 Std. -
Ortszeit Niederschlagsmenge Niederschlagsart
Mo, 16.05. 17:40 keine Meldung -
Mo, 16.05. 17:30 0.1 l/m2 in 1 Std. -
Mo, 16.05. 17:20 keine Meldung -
Mo, 16.05. 17:10 keine Meldung -
Mo, 16.05. 17:00 0.1 l/m2 in 1 Std. Regen
Mo, 16.05. 16:50 keine Meldung -
Mo, 16.05. 16:30 0.1 l/m2 in 1 Std. -
Mo, 16.05. 16:00 0.1 l/m2 in 1 Std. Regen
Mo, 16.05. 15:30 0.1 l/m2 in 1 Std. Schneeregen
Mo, 16.05. 15:00 0.0 l/m2 in 1 Std. -
Ortszeit Stärke Spitze Richtung
km/h Bft. km/h Grad Sektor
Mo, 16.05. 14:00 7 2 22 180° S
Mo, 16.05. 8:00 4 1 14 130° SO
Mo, 16.05. 2:00 4 1 14 140° SO
So, 15.05. 20:00 6 1 30 260° W
So, 15.05. 14:00 13 3 30 340° N
So, 15.05. 8:00 4 1 11 170° S
So, 15.05. 2:00 4 1 14 150° SO
Sa, 14.05. 20:00 7 2 29 300° NW
Ortszeit Stärke Spitze Richtung
km/h Bft. km/h Grad Sektor
Mo, 16.05. 17:40 9 2 - 180° S
Mo, 16.05. 17:30 14 3 32 190° S
Mo, 16.05. 17:20 14 3 - 190° S
Mo, 16.05. 17:10 14 3 - 170° S
Mo, 16.05. 17:00 22 4 32 190° S
Mo, 16.05. 16:50 22 4 - 190° S
Mo, 16.05. 16:30 13 3 22 190° S
Mo, 16.05. 16:00 14 3 22 200° S
Mo, 16.05. 15:30 9 2 13 270° W
Mo, 16.05. 15:00 6 1 15 140° SO
Ortszeit Untergrenze Bedeckung Gattung
total tief tief mittel hoch
Mo, 16.05. 14:00 3900 m 8/8 8/8 - - -
Mo, 16.05. 8:00 2100 m 8/8 4/8 - - -
Mo, 16.05. 2:00 2100 m 8/8 7/8 - - -
So, 15.05. 20:00 9000 m 8/8 0/8 - - -
So, 15.05. 14:00 - 0/8 0/8 - - -
So, 15.05. 8:00 - 0/8 0/8 - - -
So, 15.05. 2:00 9000 m 8/8 0/8 - - -
Sa, 14.05. 20:00 - 0/8 0/8 - - -
Ortszeit Bedeckungsgrad in Achtel und Wolkenuntergrenze
Mo, 16.05. 17:40 7
Mo, 16.05. 17:30 3(1380m) 7(2100m) 8(2700m)
Mo, 16.05. 17:20 3(1380m) 7(2100m) 8(2700m)
Mo, 16.05. 17:10 8
Mo, 16.05. 17:00 2(1500m) 7(2400m) 8(3600m)
Mo, 16.05. 16:50 2(1500m) 7(2400m) 8(3600m)
Mo, 16.05. 16:30 2(1500m) 8(2700m) 8(3300m)
Mo, 16.05. 16:00 5(1500m) 7(1800m) 8(3000m)
Mo, 16.05. 15:30 2(1500m) 6(2400m) 8(3900m)
Mo, 16.05. 15:00 5(1500m)
Ortszeit Stationsdruck (hPa) Tendenz (hPa in 3 Std.)
Mo, 16.05. 14:00 928 - 2,0
Mo, 16.05. 8:00 927 + 0,6
Mo, 16.05. 2:00 926 + 0,8
So, 15.05. 20:00 924 - 0,2
So, 15.05. 14:00 925 - 0,9
So, 15.05. 8:00 927 + 0,3
So, 15.05. 2:00 928 - 0,5
Sa, 14.05. 20:00 927 + 0,2
Ortszeit Stationsdruck (hPa) Tendenz (hPa in 3 Std.)
Mo, 16.05. 17:40 929 keine Meldung
Mo, 16.05. 17:30 928 + 0,1
Mo, 16.05. 17:20 928 keine Meldung
Mo, 16.05. 17:10 927 keine Meldung
Mo, 16.05. 17:00 927 - 0,2
Mo, 16.05. 16:50 927 keine Meldung
Mo, 16.05. 16:30 927 - 0,8
Mo, 16.05. 16:00 927 - 1,5
Mo, 16.05. 15:30 927 - 1,8
Mo, 16.05. 15:00 927 - 2,1
Ortszeit Schneehöhe (cm)
Mo, 16.05. 14:00 0
Mo, 16.05. 8:00 0
Mo, 16.05. 2:00 0
So, 15.05. 20:00 0
So, 15.05. 14:00 0
So, 15.05. 8:00 0
So, 15.05. 2:00 0
Sa, 14.05. 20:00 0
Ortszeit Schneehöhe (cm)
Mo, 16.05. 17:40 0
Mo, 16.05. 17:30 0
Mo, 16.05. 17:20 0
Mo, 16.05. 17:10 0
Mo, 16.05. 17:00 0
Mo, 16.05. 16:50 0
Mo, 16.05. 16:30 0
Mo, 16.05. 16:00 0
Mo, 16.05. 15:30 0
Mo, 16.05. 15:00 0
Link zu dieser Seite / Seite empfehlen

Das Wetter in ...